HAV weather

Arena Ciudad de Mexico Helipad I
Azcapotzalco, Distrito Federal, Mexico

Public forecast

Using degrees Celsius for public forecast. Weather courtesy of forecast.io.

METAR (pilot weather report)

Closest report is Licenciado Benito Juarez International Airport, 6.9 nm (12.7 km) ESE. Retrieved 2019/09/21 10:47 UTC (1 hour ago):

MMMX 211047Z 08005KT 5SM BKN025 BKN080 13/11 A3034 NOSIG RMK 8/570 HZY

TAF (pilot weather forecast)

Closest forecast is Licenciado Benito Juarez International Airport, 6.9 nm (12.7 km) ESE. Retrieved 2019/09/21 06:19 UTC (6 hours ago):

TAF MMMX 210515Z 2106/2212 30005KT P6SM SCT020 SCT250 TX25/2121Z TN14/2112Z FM211900 13010KT P6SM SCT020 FM212100 13012KT P6SM SCT020CB BKN080 PROB40 2122/2202 3SM TSRA FM220300 30005KT P6SM SCT020 BKN080